Flight Track Log - Related Links

Times and Time Zones

All times are in EDT time to prevent confusion due to time zone crossing. See the SWA1276 flight status page for this flight to view local times or setup timezone preferences in your user account.

Time Position Orientation Groundspeed Altitude Reporting Facility
EDT Latitude Longitude Course Direction KTS MPH feet Rate Location/Type
Tue 05:38:08 PM 36.0667 -86.6833 180° South 180 207 3,600  Level Nashville TRACON
Tue 05:39:20 PM 36.0000 -86.6833 180° South 264 304 8,000 3,582 Climbing Nashville TRACON
Tue 05:40:22 PM 35.9075 -86.6639 170° South 290 334 11,600 3,738 Climbing Memphis Center
Tue 05:41:22 PM 35.8325 -86.5931 143° Southeast 333 383 15,600 3,750 Climbing Memphis Center
Tue 05:42:22 PM 35.7525 -86.5022 137° Southeast 360 414 19,100 3,407 Climbing Memphis Center
Tue 05:44:41 PM 35.5075 -86.4164 164° South 399 459 26,900 2,985 Climbing Atlanta Center
Tue 05:45:41 PM 35.3911 -86.3953 172° South 418 481 29,000 1,650 Climbing Atlanta Center
Tue 05:46:41 PM 35.2900 -86.3442 158° South 423 487 30,200 2,000 Climbing Atlanta Center
Tue 05:47:41 PM 35.1844 -86.2853 155° Southeast 423 487 33,000 1,400 Climbing Atlanta Center
Tue 05:48:41 PM 35.0814 -86.2267 155° Southeast 418 481 33,000  Level Atlanta Center
Tue 05:49:41 PM 34.9806 -86.1453 147° Southeast 418 481 33,000  Level Atlanta Center
Tue 05:50:41 PM 34.9008 -86.0394 133° Southeast 431 496 33,000  Level Atlanta Center
Tue 05:51:41 PM 34.8192 -85.9314 133° Southeast 431 496 33,000  Level Atlanta Center
Tue 05:52:41 PM 34.7350 -85.8233 133° Southeast 431 496 33,000  Level Atlanta Center
Tue 05:53:41 PM 34.6511 -85.7206 135° Southeast 431 496 33,000  Level Atlanta Center
Tue 05:54:41 PM 34.5669 -85.6153 134° Southeast 431 496 33,000  Level Atlanta Center
Tue 05:55:41 PM 34.4847 -85.5081 133° Southeast 431 496 33,000  Level Atlanta Center
Tue 05:56:41 PM 34.4025 -85.4033 134° Southeast 431 496 33,000  Level Atlanta Center
Tue 05:57:41 PM 34.3200 -85.2964 133° Southeast 431 496 33,000  Level Atlanta Center
Tue 05:58:41 PM 34.2356 -85.1919 134° Southeast 431 496 33,000  Level Atlanta Center
Tue 05:59:41 PM 34.1508 -85.0856 134° Southeast 431 496 33,000  Level Atlanta Center
Tue 06:00:41 PM 34.0661 -84.9792 134° Southeast 436 502 33,000  Level Atlanta Center
Tue 06:01:41 PM 33.9833 -84.8781 135° Southeast 429 494 33,000  Level Atlanta Center
Tue 06:02:41 PM 33.8986 -84.7747 135° Southeast 434 499 33,000  Level Atlanta Center
Tue 06:03:41 PM 33.8072 -84.6564 133° Southeast 434 499 33,000  Level Atlanta Center
Tue 06:04:41 PM 33.7325 -84.5708 136° Southeast 429 494 33,000  Level Atlanta Center
Tue 06:05:41 PM 33.6392 -84.4531 134° Southeast 435 501 33,000  Level Atlanta Center
Tue 06:06:41 PM 33.5539 -84.3728 142° Southeast 440 506 33,000  Level Atlanta Center
Tue 06:07:41 PM 33.4539 -84.2903 145° Southeast 429 494 33,000  Level Atlanta Center
Tue 06:08:41 PM 33.3558 -84.2081 145° Southeast 434 499 33,000  Level Atlanta Center
Tue 06:09:41 PM 33.2600 -84.1233 144° Southeast 434 499 33,000  Level Atlanta Center
Tue 06:10:41 PM 33.1514 -84.0364 146° Southeast 434 499 33,000  Level Atlanta Center
Tue 06:11:41 PM 33.0533 -83.9522 144° Southeast 434 499 33,000  Level Atlanta Center
Tue 06:12:41 PM 32.9675 -83.8828 146° Southeast 434 499 33,000  Level Atlanta Center
Tue 06:13:41 PM 32.8694 -83.7964 143° Southeast 434 499 33,000  Level Atlanta Center
Tue 06:14:41 PM 32.7711 -83.7203 147° Southeast 434 499 33,000  Level Atlanta Center
Tue 06:15:41 PM 32.6747 -83.6342 143° Southeast 429 494 33,000  Level Atlanta Center
Tue 06:16:41 PM 32.5825 -83.5408 140° Southeast 429 494 33,000  Level Atlanta Center
Tue 06:17:41 PM 32.4903 -83.4503 140° Southeast 435 501 33,000  Level Atlanta Center
Tue 06:18:41 PM 32.3917 -83.3500 139° Southeast 435 501 33,000  Level Atlanta Center
Tue 06:19:41 PM 32.2994 -83.2600 140° Southeast 429 494 33,000 -1,612 Level Atlanta Center
Tue 06:23:09 PM 31.9975 -82.9586 140° Southeast 438 504 25,800 -2,015 Descending Jacksonville Center
Tue 06:24:09 PM 31.9119 -82.8756 141° Southeast 417 480 24,000 -900 Descending Jacksonville Center
Tue 06:25:09 PM 31.8261 -82.7900 140° Southeast 410 472 24,000  Level Jacksonville Center
Tue 06:26:09 PM 31.7406 -82.7044 140° Southeast 405 466 24,000  Level Jacksonville Center
Tue 06:27:09 PM 31.6525 -82.6217 141° Southeast 399 459 24,000 -450 Level Jacksonville Center
Tue 06:28:09 PM 31.5544 -82.5611 152° Southeast 399 459 23,100 -1,000 Descending Jacksonville Center
Tue 06:29:09 PM 31.4519 -82.5006 153° Southeast 404 465 22,000 -1,500 Descending Jacksonville Center
Tue 06:30:09 PM 31.3389 -82.4450 157° South 404 465 20,100 -2,100 Descending Jacksonville Center
Tue 06:31:09 PM 31.2386 -82.3872 154° Southeast 404 465 17,800 -2,200 Descending Jacksonville Center
Tue 06:32:09 PM 31.1464 -82.3319 153° Southeast 393 452 15,700 -2,200 Descending Jacksonville Center
Tue 06:33:09 PM 31.0583 -82.2792 153° Southeast 371 427 13,400 -2,385 Descending Jacksonville Center
Tue 06:33:27 PM 31.0356 -82.2647 151° Southeast 348 400 12,600 -1,500 Descending Jacksonville Center
Tue 06:34:09 PM 30.9725 -82.2311 155° Southeast 354 407 11,900 -590 Descending Jacksonville Center
Tue 06:34:28 PM 30.9517 -82.2022 130° Southeast 328 377 12,000  Climbing Jacksonville Center
Tue 06:35:09 PM 30.9075 -82.1614 142° Southeast 336 387 11,900 -1,188 Descending Jacksonville Center
Tue 06:36:09 PM 30.8467 -82.1014 140° Southeast 310 357 10,000 -1,704 Descending Jacksonville Center
Tue 06:36:30 PM 30.8278 -82.0772 132° Southeast 290 334 9,600 -1,900 Descending Jacksonville Center
Tue 06:37:09 PM 30.7878 -82.0439 144° Southeast 296 341 8,100 -2,509 Descending Jacksonville Center
Tue 06:37:25 PM 30.7708 -82.0222 132° Southeast 282 325 7,300 -2,200 Descending Jacksonville Center
Tue 06:38:09 PM 30.7289 -81.9839 142° Southeast 284 327 5,900 -2,055 Descending Jacksonville Center
Tue 06:38:38 PM 30.7017 -81.9575 140° Southeast 269 310 4,800 -1,400 Descending Jacksonville Center
Tue 06:39:09 PM 30.6764 -81.9289 136° Southeast 278 320 4,500 -655 Descending Jacksonville Center
Tue 06:39:33 PM 30.6553 -81.9072 139° Southeast 234 269 4,200 -1,100 Descending Jacksonville Center
Tue 06:40:09 PM 30.6236 -81.8786 142° Southeast 256 295 3,400 -787 Descending Jacksonville Center
Tue 06:40:34 PM 30.6047 -81.8547 133° Southeast 244 281 3,400 -600 Level Jacksonville Center
Tue 06:41:09 PM 30.5814 -81.8283 136° Southeast 237 273 2,800 -1,075 Descending Jacksonville Center
Tue 06:41:41 PM 30.5625 -81.7997 127° Southeast 208 239 2,200 -1,111 Descending Jacksonville Center
Tue 06:42:30 PM 30.5350 -81.7614 130° Southeast 172 198 1,300 -873 Descending Jacksonville Center
Tue 06:43:31 PM 30.5097 -81.7281 131° Southeast 125 144 600 -689 Descending Jacksonville Center
Tue 06:45:00 PM 30.4941 -81.6879 135° Southeast  Level Estimated
Tue 06:52:00 PM 30.4941 -81.6879 311° West  Level Estimated

Login

Don't have an account? Register now (free) for customized features, flight alerts, and more!